createdAt,value
2018-08-12T00:00:03.327Z,14.90
2018-08-12T00:02:32.141Z,14.80
2018-08-12T00:05:00.902Z,14.80
2018-08-12T00:07:30.121Z,14.80
2018-08-12T00:09:58.971Z,14.70
2018-08-12T00:12:27.670Z,14.60
2018-08-12T00:14:56.421Z,14.60
2018-08-12T00:17:25.217Z,14.50
2018-08-12T00:19:53.942Z,14.50
2018-08-12T00:22:22.612Z,14.40
2018-08-12T00:24:51.379Z,14.40
2018-08-12T00:27:20.098Z,14.40
2018-08-12T00:29:48.890Z,14.40
2018-08-12T00:32:17.630Z,14.40
2018-08-12T00:34:46.394Z,14.30
2018-08-12T00:37:15.277Z,14.20
2018-08-12T00:39:43.940Z,14.20
2018-08-12T00:42:12.841Z,14.10
2018-08-12T00:44:42.825Z,14.10
2018-08-12T00:47:11.595Z,14.10
2018-08-12T00:49:40.392Z,14.10
2018-08-12T00:52:09.225Z,14.00
2018-08-12T00:54:37.884Z,13.90
2018-08-12T00:57:06.613Z,13.90
2018-08-12T00:59:35.337Z,13.90
2018-08-12T01:02:04.302Z,13.90
2018-08-12T01:04:33.269Z,13.90
2018-08-12T01:07:02.154Z,13.90
2018-08-12T01:09:30.897Z,13.80
2018-08-12T01:11:59.573Z,13.80
2018-08-12T01:14:28.364Z,13.70
2018-08-12T01:16:57.073Z,13.70
2018-08-12T01:19:25.944Z,13.70
2018-08-12T01:21:54.733Z,13.60
2018-08-12T01:24:23.591Z,13.60
2018-08-12T01:26:52.299Z,13.60
2018-08-12T01:29:21.102Z,13.50
2018-08-12T01:31:49.828Z,13.50
2018-08-12T01:34:18.655Z,13.50
2018-08-12T01:36:47.729Z,13.40
2018-08-12T01:39:16.390Z,13.40
2018-08-12T01:41:45.225Z,13.40
2018-08-12T01:44:14.018Z,13.40
2018-08-12T01:46:42.647Z,13.40
2018-08-12T01:49:11.442Z,13.30
2018-08-12T01:51:46.397Z,13.20
2018-08-12T01:54:15.084Z,13.20
2018-08-12T01:56:43.977Z,13.10
2018-08-12T01:59:12.681Z,13.10
2018-08-12T02:01:41.522Z,13.10
2018-08-12T02:04:10.380Z,13.10
2018-08-12T02:06:39.134Z,13.00
2018-08-12T02:09:09.353Z,13.00
2018-08-12T02:11:38.100Z,13.00
2018-08-12T02:14:07.373Z,13.00
2018-08-12T02:16:41.714Z,12.90
2018-08-12T02:19:15.912Z,12.90
2018-08-12T02:21:50.481Z,12.90
2018-08-12T02:24:22.953Z,12.90
2018-08-12T02:26:51.765Z,12.90
2018-08-12T02:29:20.538Z,12.90
2018-08-12T02:31:49.278Z,12.80
2018-08-12T02:34:18.088Z,12.80
2018-08-12T02:36:47.046Z,12.70
2018-08-12T02:39:15.711Z,12.70
2018-08-12T02:41:44.621Z,12.60
2018-08-12T02:44:13.492Z,12.60
2018-08-12T02:46:43.043Z,12.60
2018-08-12T02:49:11.875Z,12.50
2018-08-12T02:51:40.834Z,12.50
2018-08-12T02:54:09.649Z,12.40
2018-08-12T02:56:38.381Z,12.40
2018-08-12T02:59:10.261Z,12.30
2018-08-12T03:01:38.970Z,12.30
2018-08-12T03:04:07.826Z,12.30
2018-08-12T03:06:53.190Z,12.20
2018-08-12T03:09:21.978Z,12.20
2018-08-12T03:11:50.746Z,12.20
2018-08-12T03:14:19.565Z,12.10
2018-08-12T03:16:48.324Z,12.10
2018-08-12T03:19:17.129Z,12.00
2018-08-12T03:21:45.855Z,12.00
2018-08-12T03:24:14.605Z,12.00
2018-08-12T03:26:43.478Z,12.00
2018-08-12T03:29:12.364Z,12.00
2018-08-12T03:31:41.072Z,12.00
2018-08-12T03:34:09.846Z,11.90
2018-08-12T03:36:38.681Z,11.90
2018-08-12T03:39:08.949Z,11.90
2018-08-12T03:41:37.874Z,11.80
2018-08-12T03:44:09.804Z,11.90
2018-08-12T03:46:38.529Z,11.80
2018-08-12T03:49:07.338Z,11.80
2018-08-12T03:51:36.013Z,11.70
2018-08-12T03:54:04.885Z,11.70
2018-08-12T03:56:33.705Z,11.70
2018-08-12T03:59:02.437Z,11.70
2018-08-12T04:01:31.325Z,11.60
2018-08-12T04:04:00.121Z,11.60
2018-08-12T04:06:28.853Z,11.60
2018-08-12T04:08:57.600Z,11.60
2018-08-12T04:11:26.341Z,11.60
2018-08-12T04:13:55.049Z,11.60
2018-08-12T04:16:23.845Z,11.50
2018-08-12T04:18:52.667Z,11.60
2018-08-12T04:21:21.720Z,11.60
2018-08-12T04:23:50.418Z,11.60
2018-08-12T04:26:19.296Z,11.60
2018-08-12T04:28:48.038Z,11.60
2018-08-12T04:31:16.861Z,11.50
2018-08-12T04:33:45.714Z,11.50
2018-08-12T04:36:14.520Z,11.50
2018-08-12T04:38:43.453Z,11.50
2018-08-12T04:41:12.337Z,11.50
2018-08-12T04:43:41.090Z,11.50
2018-08-12T04:46:11.999Z,11.40
2018-08-12T04:48:40.813Z,11.50
2018-08-12T04:51:09.590Z,11.40
2018-08-12T04:53:38.443Z,11.40
2018-08-12T04:56:07.229Z,11.40
2018-08-12T04:58:35.941Z,11.50
2018-08-12T05:01:04.869Z,11.50
2018-08-12T05:03:33.681Z,11.50
2018-08-12T05:06:02.435Z,11.50
2018-08-12T05:08:31.476Z,11.50
2018-08-12T05:11:00.649Z,11.50
2018-08-12T05:13:29.437Z,11.60
2018-08-12T05:15:58.300Z,11.60
2018-08-12T05:18:27.049Z,11.70
2018-08-12T05:20:55.777Z,11.80
2018-08-12T05:23:24.497Z,11.80
2018-08-12T05:25:53.269Z,11.80
2018-08-12T05:28:22.089Z,11.90
2018-08-12T05:30:50.893Z,11.90
2018-08-12T05:33:19.769Z,11.90
2018-08-12T05:35:48.560Z,12.00
2018-08-12T05:38:17.398Z,12.10
2018-08-12T05:40:46.193Z,12.10
2018-08-12T05:43:15.053Z,12.20
2018-08-12T05:45:43.869Z,12.20
2018-08-12T05:48:12.585Z,12.30
2018-08-12T05:50:41.392Z,12.30
2018-08-12T05:53:10.146Z,12.40
2018-08-12T05:55:38.909Z,12.40
2018-08-12T05:58:07.634Z,12.40
2018-08-12T06:00:36.294Z,12.40
2018-08-12T06:03:05.205Z,12.40
2018-08-12T06:05:34.214Z,12.50
2018-08-12T06:08:02.997Z,12.60
2018-08-12T06:10:31.858Z,12.60
2018-08-12T06:13:09.561Z,12.70
2018-08-12T06:15:38.369Z,12.80
2018-08-12T06:18:07.230Z,12.90
2018-08-12T06:20:35.985Z,13.00
2018-08-12T06:23:04.717Z,13.10
2018-08-12T06:25:33.444Z,13.10
2018-08-12T06:28:02.237Z,13.20
2018-08-12T06:30:30.944Z,13.30
2018-08-12T06:32:59.697Z,13.30
2018-08-12T06:35:28.405Z,13.40
2018-08-12T06:37:57.238Z,13.50
2018-08-12T06:40:26.005Z,13.60
2018-08-12T06:42:54.743Z,13.70
2018-08-12T06:45:23.612Z,13.80
2018-08-12T06:47:52.521Z,13.90
2018-08-12T06:50:21.323Z,14.00
2018-08-12T06:52:50.178Z,14.10
2018-08-12T06:55:18.805Z,14.20
2018-08-12T06:57:47.713Z,14.30
2018-08-12T07:00:18.070Z,14.40
2018-08-12T07:02:46.897Z,14.50
2018-08-12T07:05:15.668Z,14.60
2018-08-12T07:07:44.432Z,14.70
2018-08-12T07:10:14.458Z,14.80
2018-08-12T07:12:43.227Z,14.80
2018-08-12T07:15:14.837Z,15.00
2018-08-12T07:17:45.477Z,15.00
2018-08-12T07:20:14.684Z,15.10
2018-08-12T07:22:44.054Z,15.20
2018-08-12T07:25:13.870Z,15.20
2018-08-12T07:27:43.277Z,15.40
2018-08-12T07:30:15.079Z,15.40
2018-08-12T07:32:44.005Z,15.50
2018-08-12T07:35:13.098Z,15.60
2018-08-12T07:37:42.243Z,15.60
2018-08-12T07:40:16.260Z,15.70
2018-08-12T07:42:45.542Z,15.70
2018-08-12T07:45:14.372Z,15.80
2018-08-12T07:47:43.463Z,15.90
2018-08-12T07:50:12.473Z,16.00
2018-08-12T07:52:42.571Z,16.10
2018-08-12T07:55:12.054Z,16.10
2018-08-12T07:57:41.757Z,16.20
2018-08-12T08:00:12.701Z,16.20
2018-08-12T08:02:41.658Z,16.30
2018-08-12T08:05:10.418Z,16.40
2018-08-12T08:07:39.399Z,16.50
2018-08-12T08:10:10.352Z,16.60
2018-08-12T08:12:39.813Z,16.70
2018-08-12T08:15:14.672Z,16.70
2018-08-12T08:17:43.634Z,16.90
2018-08-12T08:20:13.544Z,17.00
2018-08-12T08:22:42.779Z,17.10
2018-08-12T08:25:12.007Z,17.20
2018-08-12T08:27:40.993Z,17.30
2018-08-12T08:30:12.949Z,17.30
2018-08-12T08:32:42.026Z,17.40
2018-08-12T08:35:11.887Z,17.50
2018-08-12T08:37:41.117Z,17.60
2018-08-12T08:40:13.545Z,17.70
2018-08-12T08:42:42.317Z,17.80
2018-08-12T08:45:15.106Z,17.90
2018-08-12T08:47:45.359Z,18.00
2018-08-12T08:50:14.362Z,18.10
2018-08-12T08:52:43.142Z,18.20
2018-08-12T08:55:12.992Z,18.20
2018-08-12T08:57:43.869Z,18.30
2018-08-12T09:00:15.507Z,18.40
2018-08-12T09:02:46.549Z,18.50
2018-08-12T09:05:16.081Z,18.60
2018-08-12T09:07:45.093Z,18.80
2018-08-12T09:10:17.113Z,18.90
2018-08-12T09:12:45.813Z,19.10
2018-08-12T09:15:16.120Z,19.30
2018-08-12T09:17:45.520Z,19.50
2018-08-12T09:20:19.639Z,19.70
2018-08-12T09:22:48.393Z,19.70
2018-08-12T09:25:17.699Z,19.70
2018-08-12T09:27:46.745Z,19.90
2018-08-12T09:30:20.264Z,20.00
2018-08-12T09:32:49.333Z,20.10
2018-08-12T09:35:33.774Z,20.30
2018-08-12T09:38:02.596Z,20.30
2018-08-12T09:40:31.446Z,20.40
2018-08-12T09:43:00.340Z,20.40
2018-08-12T09:45:29.057Z,20.60
2018-08-12T09:47:57.865Z,20.70
2018-08-12T09:50:26.698Z,20.80
2018-08-12T09:52:55.465Z,20.90
2018-08-12T09:55:26.410Z,21.00
2018-08-12T09:57:55.098Z,21.10
2018-08-12T10:00:27.786Z,21.20
2018-08-12T10:02:57.421Z,21.30
2018-08-12T10:05:26.207Z,21.30
2018-08-12T10:07:55.172Z,21.40
2018-08-12T10:10:24.196Z,21.40
2018-08-12T10:12:53.192Z,21.50
2018-08-12T10:15:22.122Z,21.50
2018-08-12T10:17:52.997Z,21.60
2018-08-12T10:20:22.093Z,21.70
2018-08-12T10:22:50.868Z,21.90
2018-08-12T10:25:19.703Z,21.90
2018-08-12T10:27:48.496Z,22.00
2018-08-12T10:30:17.400Z,22.10
2018-08-12T10:32:46.138Z,22.10
2018-08-12T10:35:23.837Z,22.20
2018-08-12T10:37:52.738Z,22.20
2018-08-12T10:40:21.906Z,22.30
2018-08-12T10:42:51.058Z,22.30
2018-08-12T10:45:19.780Z,22.40
2018-08-12T10:47:48.636Z,22.50
2018-08-12T10:50:18.521Z,22.50
2018-08-12T10:52:48.162Z,22.50
2018-08-12T10:55:19.781Z,22.50
2018-08-12T10:57:48.953Z,22.60
2018-08-12T11:00:22.773Z,22.70
2018-08-12T11:03:02.449Z,22.80
2018-08-12T11:05:31.160Z,22.80
2018-08-12T11:08:00.078Z,22.90
2018-08-12T11:10:38.717Z,23.00
2018-08-12T11:13:07.534Z,23.00
2018-08-12T11:15:36.291Z,23.10
2018-08-12T11:18:05.354Z,23.20
2018-08-12T11:20:36.427Z,23.20
2018-08-12T11:23:05.197Z,23.40
2018-08-12T11:25:36.086Z,23.50
2018-08-12T11:28:04.898Z,23.70
2018-08-12T11:30:34.041Z,23.80
2018-08-12T11:33:06.813Z,23.80
2018-08-12T11:35:35.669Z,24.00
2018-08-12T11:38:04.525Z,24.10
2018-08-12T11:40:33.475Z,24.10
2018-08-12T11:43:02.340Z,24.20
2018-08-12T11:45:37.767Z,24.20
2018-08-12T11:48:06.511Z,24.30
2018-08-12T11:50:38.386Z,24.40
2018-08-12T11:53:07.412Z,24.40
2018-08-12T11:55:36.293Z,24.50
2018-08-12T11:58:05.197Z,24.50
2018-08-12T12:00:34.166Z,24.60
2018-08-12T12:03:02.927Z,24.60
2018-08-12T12:05:31.804Z,24.70
2018-08-12T12:08:00.658Z,24.70
2018-08-12T12:10:29.668Z,24.90
2018-08-12T12:12:58.619Z,25.00
2018-08-12T12:15:27.349Z,25.10
2018-08-12T12:17:56.245Z,25.30
2018-08-12T12:20:27.077Z,25.40
2018-08-12T12:22:56.021Z,25.50
2018-08-12T12:25:24.787Z,25.50
2018-08-12T12:27:53.855Z,25.60
2018-08-12T12:30:27.040Z,25.60
2018-08-12T12:32:56.024Z,25.60
2018-08-12T12:35:24.992Z,25.60
2018-08-12T12:37:54.034Z,25.70
2018-08-12T12:40:22.824Z,25.70
2018-08-12T12:43:07.176Z,25.70
2018-08-12T12:45:36.027Z,25.80
2018-08-12T12:48:04.860Z,25.80
2018-08-12T12:50:33.843Z,25.90
2018-08-12T12:53:02.693Z,25.90
2018-08-12T12:55:31.361Z,25.80
2018-08-12T12:58:04.301Z,25.80
2018-08-12T13:00:33.178Z,25.80
2018-08-12T13:03:01.998Z,25.90
2018-08-12T13:05:30.833Z,26.10
2018-08-12T13:07:59.612Z,26.20
2018-08-12T13:10:28.467Z,26.20
2018-08-12T13:12:57.327Z,26.20
2018-08-12T13:15:26.129Z,26.10
2018-08-12T13:18:01.071Z,26.20
2018-08-12T13:20:29.803Z,26.30
2018-08-12T13:22:58.748Z,26.50
2018-08-12T13:25:27.673Z,26.70
2018-08-12T13:27:56.612Z,26.70
2018-08-12T13:30:25.566Z,26.80
2018-08-12T13:32:54.306Z,26.90
2018-08-12T13:35:23.049Z,26.90
2018-08-12T13:37:51.899Z,27.00
2018-08-12T13:40:20.801Z,27.20
2018-08-12T13:42:54.767Z,27.30
2018-08-12T13:45:23.581Z,27.40
2018-08-12T13:47:52.303Z,27.40
2018-08-12T13:50:22.609Z,27.50
2018-08-12T13:52:52.073Z,27.60
2018-08-12T13:55:21.569Z,27.60
2018-08-12T13:57:51.130Z,27.60
2018-08-12T14:00:25.328Z,27.80
2018-08-12T14:02:54.256Z,28.00
2018-08-12T14:05:23.189Z,28.10
2018-08-12T14:07:52.285Z,28.10
2018-08-12T14:10:21.129Z,28.00
2018-08-12T14:12:49.961Z,27.90
2018-08-12T14:15:23.939Z,28.00
2018-08-12T14:17:52.680Z,27.90
2018-08-12T14:20:21.996Z,27.90
2018-08-12T14:22:50.814Z,27.90
2018-08-12T14:25:19.659Z,28.10
2018-08-12T14:27:48.526Z,28.20
2018-08-12T14:30:19.664Z,28.40
2018-08-12T14:32:49.113Z,28.50
2018-08-12T14:35:19.114Z,28.70
2018-08-12T14:37:48.952Z,28.70
2018-08-12T14:40:17.910Z,28.80
2018-08-12T14:42:46.856Z,28.70
2018-08-12T14:45:16.245Z,28.70
2018-08-12T14:47:45.526Z,28.70
2018-08-12T14:50:16.970Z,28.90
2018-08-12T14:52:45.745Z,28.90
2018-08-12T14:55:15.001Z,28.90
2018-08-12T14:57:43.967Z,28.70
2018-08-12T15:00:17.814Z,28.60
2018-08-12T15:02:53.420Z,28.50
2018-08-12T15:05:22.481Z,28.60
2018-08-12T15:07:51.258Z,28.70
2018-08-12T15:10:20.112Z,28.80
2018-08-12T15:12:49.117Z,28.90
2018-08-12T15:15:18.085Z,29.00
2018-08-12T15:17:50.950Z,29.20
2018-08-12T15:20:19.825Z,29.40
2018-08-12T15:22:48.909Z,29.40
2018-08-12T15:25:19.519Z,29.40
2018-08-12T15:27:48.717Z,29.50
2018-08-12T15:30:17.686Z,29.40
2018-08-12T15:32:46.569Z,29.50
2018-08-12T15:35:15.338Z,29.60
2018-08-12T15:37:44.329Z,29.70
2018-08-12T15:40:14.973Z,29.80
2018-08-12T15:42:44.158Z,29.80
2018-08-12T15:45:15.609Z,30.00
2018-08-12T15:47:45.062Z,30.30
2018-08-12T15:50:14.196Z,30.70
2018-08-12T15:57:33.863Z,31.60
2018-08-12T16:00:02.625Z,32.00
2018-08-12T16:02:31.373Z,32.00
2018-08-12T16:05:11.089Z,32.60
2018-08-12T16:07:39.846Z,33.40
2018-08-12T16:10:12.581Z,33.50
2018-08-12T16:12:41.394Z,33.90
2018-08-12T16:15:11.413Z,34.10
2018-08-12T16:17:41.272Z,34.10
2018-08-12T16:20:10.464Z,34.10
2018-08-12T16:22:39.314Z,33.70
2018-08-12T16:25:10.610Z,33.00
2018-08-12T16:30:35.214Z,32.00
2018-08-12T16:33:04.097Z,31.70
2018-08-12T16:35:32.926Z,31.70
2018-08-12T16:38:01.703Z,31.70
2018-08-12T16:40:37.288Z,31.80
2018-08-12T16:43:06.422Z,31.50
2018-08-12T16:45:35.430Z,31.70
2018-08-12T16:48:04.798Z,32.10
2018-08-12T16:50:33.617Z,32.30
2018-08-12T16:53:09.126Z,32.30
2018-08-12T16:55:37.937Z,32.30
2018-08-12T16:58:06.729Z,32.60
2018-08-12T17:00:35.517Z,32.70
2018-08-12T17:03:04.447Z,32.50
2018-08-12T17:05:33.286Z,32.50
2018-08-12T17:08:02.451Z,32.30
2018-08-12T17:10:35.346Z,32.30
2018-08-12T17:13:04.070Z,32.60
2018-08-12T17:15:32.809Z,32.80
2018-08-12T17:18:01.746Z,32.70
2018-08-12T17:20:30.474Z,32.30
2018-08-12T17:25:53.519Z,32.00
2018-08-12T17:28:22.329Z,31.30
2018-08-12T17:30:51.073Z,30.70
2018-08-12T17:33:19.912Z,30.10
2018-08-12T17:35:48.610Z,29.90
2018-08-12T17:38:17.518Z,30.00
2018-08-12T17:40:46.544Z,30.10
2018-08-12T17:43:15.305Z,30.20
2018-08-12T17:45:44.081Z,30.20
2018-08-12T17:48:13.030Z,30.50
2018-08-12T17:50:43.265Z,31.10
2018-08-12T17:53:12.198Z,31.10
2018-08-12T17:55:41.053Z,30.70
2018-08-12T17:58:09.801Z,30.00
2018-08-12T18:00:38.664Z,29.60
2018-08-12T18:03:07.507Z,29.20
2018-08-12T18:05:36.221Z,29.00
2018-08-12T18:08:05.293Z,28.80
2018-08-12T18:10:34.074Z,28.70
2018-08-12T18:13:02.969Z,28.40
2018-08-12T18:15:31.787Z,28.20
2018-08-12T18:18:06.173Z,27.80
2018-08-12T18:20:34.899Z,27.50
2018-08-12T18:23:03.621Z,27.20
2018-08-12T18:25:32.511Z,27.00
2018-08-12T18:28:01.362Z,26.90
2018-08-12T18:30:30.356Z,27.40
2018-08-12T18:32:59.174Z,27.90
2018-08-12T18:35:27.984Z,28.30
2018-08-12T18:37:56.773Z,28.20
2018-08-12T18:40:25.689Z,27.70
2018-08-12T18:42:54.513Z,27.20
2018-08-12T18:45:23.458Z,26.70
2018-08-12T18:47:52.218Z,26.30
2018-08-12T18:50:21.121Z,26.00
2018-08-12T18:52:49.845Z,25.60
2018-08-12T18:55:18.554Z,25.40
2018-08-12T18:57:47.513Z,25.10
2018-08-12T19:00:20.459Z,24.80
2018-08-12T19:02:55.833Z,24.70
2018-08-12T19:05:24.765Z,24.50
2018-08-12T19:07:53.605Z,24.30
2018-08-12T19:10:22.342Z,24.20
2018-08-12T19:12:52.323Z,24.10
2018-08-12T19:15:21.133Z,23.90
2018-08-12T19:17:50.003Z,23.80
2018-08-12T19:20:18.973Z,23.70
2018-08-12T19:22:47.711Z,23.60
2018-08-12T19:25:16.649Z,23.50
2018-08-12T19:27:45.475Z,23.40
2018-08-12T19:30:14.344Z,23.30
2018-08-12T19:32:43.216Z,23.20
2018-08-12T19:35:12.707Z,23.10
2018-08-12T19:37:41.697Z,23.00
2018-08-12T19:40:10.407Z,22.90
2018-08-12T19:42:39.515Z,22.80
2018-08-12T19:45:19.432Z,22.70
2018-08-12T19:50:37.821Z,22.50
2018-08-12T19:53:09.167Z,22.40
2018-08-12T19:55:37.917Z,22.30
2018-08-12T19:58:06.753Z,22.30
2018-08-12T20:00:39.605Z,22.20
2018-08-12T20:03:08.312Z,22.10
2018-08-12T20:05:36.940Z,22.00
2018-08-12T20:08:05.686Z,21.90
2018-08-12T20:10:36.560Z,21.80
2018-08-12T20:13:05.519Z,21.80
2018-08-12T20:15:34.217Z,21.70
2018-08-12T20:18:05.597Z,21.60
2018-08-12T20:20:43.321Z,21.60
2018-08-12T20:23:12.437Z,21.50
2018-08-12T20:25:41.413Z,21.40
2018-08-12T20:28:10.288Z,21.30
2018-08-12T20:30:39.510Z,21.20
2018-08-12T20:33:08.874Z,21.20
2018-08-12T20:35:37.749Z,21.10
2018-08-12T20:38:06.991Z,21.00
2018-08-12T20:40:35.786Z,21.00
2018-08-12T20:43:05.237Z,20.90
2018-08-12T20:45:34.303Z,20.80
2018-08-12T20:48:03.545Z,20.80
2018-08-12T20:53:27.477Z,20.70
2018-08-12T20:55:56.433Z,20.70
2018-08-12T20:58:25.752Z,20.60
2018-08-12T21:00:54.623Z,20.60
2018-08-12T21:03:23.651Z,20.50
2018-08-12T21:05:52.945Z,20.50
2018-08-12T21:08:22.310Z,20.40
2018-08-12T21:10:51.321Z,20.30
2018-08-12T21:13:20.365Z,20.30
2018-08-12T21:15:49.636Z,20.20
2018-08-12T21:18:18.631Z,20.20
2018-08-12T21:20:47.929Z,20.20
2018-08-12T21:23:17.146Z,20.10
2018-08-12T21:25:46.235Z,20.00
2018-08-12T21:28:17.505Z,20.00
2018-08-12T21:30:46.562Z,19.90
2018-08-12T21:33:16.489Z,19.80
2018-08-12T21:35:45.273Z,19.80
2018-08-12T21:38:14.769Z,19.80
2018-08-12T21:40:43.801Z,19.70
2018-08-12T21:43:12.946Z,19.70
2018-08-12T21:45:41.898Z,19.60
2018-08-12T21:48:11.247Z,19.60
2018-08-12T21:50:40.215Z,19.50
2018-08-12T21:53:09.629Z,19.50
2018-08-12T21:55:38.974Z,19.40
2018-08-12T21:58:07.837Z,19.40
2018-08-12T22:00:36.733Z,19.30
2018-08-12T22:03:06.299Z,19.30
2018-08-12T22:05:35.533Z,19.20
2018-08-12T22:08:08.761Z,19.20
2018-08-12T22:10:38.689Z,19.20
2018-08-12T22:13:08.365Z,19.10
2018-08-12T22:15:37.517Z,19.10
2018-08-12T22:18:07.841Z,19.10
2018-08-12T22:20:37.284Z,19.00
2018-08-12T22:23:06.803Z,19.00
2018-08-12T22:25:37.000Z,19.00
2018-08-12T22:28:19.516Z,18.90
2018-08-12T22:30:48.369Z,18.90
2018-08-12T22:33:17.201Z,18.80
2018-08-12T22:35:46.349Z,18.80
2018-08-12T22:38:15.293Z,18.80
2018-08-12T22:40:44.273Z,18.70
2018-08-12T22:43:13.266Z,18.70
2018-08-12T22:45:42.598Z,18.60
2018-08-12T22:48:11.697Z,18.60
2018-08-12T22:50:41.285Z,18.50
2018-08-12T22:53:10.654Z,18.50
2018-08-12T22:55:39.465Z,18.50
2018-08-12T22:58:08.340Z,18.40
2018-08-12T23:00:37.053Z,18.40
2018-08-12T23:03:06.616Z,18.40
2018-08-12T23:05:41.486Z,18.40
2018-08-12T23:08:10.685Z,18.30
2018-08-12T23:10:40.571Z,18.30
2018-08-12T23:13:09.619Z,18.30
2018-08-12T23:16:14.017Z,18.20
2018-08-12T23:18:42.721Z,18.20
2018-08-12T23:21:12.517Z,18.20
2018-08-12T23:23:43.358Z,18.10
2018-08-12T23:26:13.792Z,18.00
2018-08-12T23:28:42.661Z,18.00
2018-08-12T23:31:11.639Z,17.90
2018-08-12T23:33:40.389Z,17.90
2018-08-12T23:36:09.506Z,17.80
2018-08-12T23:38:38.534Z,17.80
2018-08-12T23:41:08.249Z,17.70
2018-08-12T23:43:37.002Z,17.70
2018-08-12T23:46:05.816Z,17.70
2018-08-12T23:48:34.497Z,17.60
2018-08-12T23:51:03.527Z,17.60
2018-08-12T23:53:33.397Z,17.60
2018-08-12T23:56:02.122Z,17.60
2018-08-12T23:58:30.857Z,17.50
